createdAt,value
2023-04-15T00:00:58.228Z,5.98
2023-04-15T00:03:25.044Z,5.94
2023-04-15T00:05:52.005Z,5.89
2023-04-15T00:08:18.583Z,5.86
2023-04-15T00:10:46.579Z,5.82
2023-04-15T00:13:13.316Z,5.80
2023-04-15T00:15:39.760Z,5.80
2023-04-15T00:18:07.416Z,5.79
2023-04-15T00:20:34.791Z,5.78
2023-04-15T00:23:02.666Z,5.75
2023-04-15T00:25:29.324Z,5.72
2023-04-15T00:27:55.849Z,5.68
2023-04-15T00:30:22.540Z,5.65
2023-04-15T00:32:49.609Z,5.63
2023-04-15T00:35:16.532Z,5.60
2023-04-15T00:37:44.222Z,5.55
2023-04-15T00:40:13.728Z,5.51
2023-04-15T00:42:40.596Z,5.48
2023-04-15T00:45:08.824Z,5.42
2023-04-15T00:47:37.751Z,5.38
2023-04-15T00:50:04.965Z,5.34
2023-04-15T00:52:31.998Z,5.27
2023-04-15T00:54:58.980Z,5.21
2023-04-15T00:57:27.101Z,5.17
2023-04-15T00:59:53.851Z,5.14
2023-04-15T01:02:20.811Z,5.13
2023-04-15T01:04:47.610Z,5.12
2023-04-15T01:07:14.180Z,5.12
2023-04-15T01:09:41.482Z,5.11
2023-04-15T01:12:12.018Z,5.09
2023-04-15T01:14:38.662Z,5.03
2023-04-15T01:17:05.148Z,4.99
2023-04-15T01:19:31.746Z,4.95
2023-04-15T01:24:34.236Z,4.86
2023-04-15T01:27:00.646Z,4.84
2023-04-15T01:29:27.505Z,4.79
2023-04-15T01:31:55.958Z,4.78
2023-04-15T01:34:22.480Z,4.78
2023-04-15T01:36:48.919Z,4.78
2023-04-15T01:39:15.895Z,4.79
2023-04-15T01:41:42.442Z,4.76
2023-04-15T01:44:08.997Z,4.75
2023-04-15T01:46:35.822Z,4.77
2023-04-15T01:49:02.498Z,4.74
2023-04-15T01:51:29.108Z,4.71
2023-04-15T01:53:57.069Z,4.66
2023-04-15T01:56:26.614Z,4.63
2023-04-15T01:58:53.440Z,4.60
2023-04-15T02:01:20.179Z,4.56
2023-04-15T02:03:47.928Z,4.55
2023-04-15T02:06:14.871Z,4.56
2023-04-15T02:08:41.402Z,4.57
2023-04-15T02:11:08.233Z,4.58
2023-04-15T02:13:34.620Z,4.57
2023-04-15T02:16:01.044Z,4.57
2023-04-15T02:18:27.480Z,4.55
2023-04-15T02:20:53.919Z,4.54
2023-04-15T02:23:20.427Z,4.53
2023-04-15T02:25:53.408Z,4.50
2023-04-15T02:28:21.042Z,4.49
2023-04-15T02:30:53.324Z,4.48
2023-04-15T02:33:21.660Z,4.45
2023-04-15T02:35:48.158Z,4.43
2023-04-15T02:38:16.765Z,4.41
2023-04-15T02:40:43.282Z,4.39
2023-04-15T02:43:09.725Z,4.39
2023-04-15T02:45:36.214Z,4.38
2023-04-15T02:48:06.240Z,4.39
2023-04-15T02:50:33.135Z,4.38
2023-04-15T02:53:01.418Z,4.35
2023-04-15T02:55:29.054Z,4.31
2023-04-15T02:57:55.584Z,4.27
2023-04-15T03:00:22.388Z,4.23
2023-04-15T03:02:52.438Z,4.20
2023-04-15T03:05:19.144Z,4.20
2023-04-15T03:07:45.558Z,4.19
2023-04-15T03:10:12.053Z,4.17
2023-04-15T03:12:38.499Z,4.15
2023-04-15T03:15:05.363Z,4.13
2023-04-15T03:17:31.760Z,4.12
2023-04-15T03:19:58.276Z,4.11
2023-04-15T03:22:25.263Z,4.10
2023-04-15T03:24:51.765Z,4.08
2023-04-15T03:27:18.159Z,4.08
2023-04-15T03:29:44.566Z,4.07
2023-04-15T03:32:12.125Z,4.08
2023-04-15T03:34:38.573Z,4.09
2023-04-15T03:37:05.415Z,4.10
2023-04-15T03:39:31.968Z,4.11
2023-04-15T03:41:59.623Z,4.13
2023-04-15T03:44:28.824Z,4.15
2023-04-15T03:46:55.255Z,4.15
2023-04-15T03:49:23.015Z,4.15
2023-04-15T03:51:49.452Z,4.15
2023-04-15T03:54:15.894Z,4.14
2023-04-15T03:56:42.302Z,4.16
2023-04-15T03:59:08.937Z,4.19
2023-04-15T04:01:35.464Z,4.20
2023-04-15T04:04:02.301Z,4.17
2023-04-15T04:06:28.788Z,4.19
2023-04-15T04:08:55.925Z,4.16
2023-04-15T04:11:22.334Z,4.16
2023-04-15T04:13:48.772Z,4.13
2023-04-15T04:16:15.381Z,4.11
2023-04-15T04:18:41.865Z,4.06
2023-04-15T04:21:08.348Z,4.01
2023-04-15T04:23:34.743Z,3.97
2023-04-15T04:26:01.188Z,3.94
2023-04-15T04:28:27.632Z,3.89
2023-04-15T04:30:54.181Z,3.87
2023-04-15T04:33:20.685Z,3.86
2023-04-15T04:35:47.088Z,3.84
2023-04-15T04:38:13.480Z,3.84
2023-04-15T04:40:39.946Z,3.83
2023-04-15T04:43:06.398Z,3.80
2023-04-15T04:45:32.888Z,3.76
2023-04-15T04:47:59.347Z,3.71
2023-04-15T04:50:25.977Z,3.69
2023-04-15T04:52:52.411Z,3.67
2023-04-15T04:55:18.884Z,3.66
2023-04-15T04:57:45.415Z,3.64
2023-04-15T05:00:12.607Z,3.64
2023-04-15T05:02:39.127Z,3.64
2023-04-15T05:05:06.594Z,3.67
2023-04-15T05:07:33.073Z,3.68
2023-04-15T05:09:59.530Z,3.71
2023-04-15T05:12:26.184Z,3.73
2023-04-15T05:14:52.613Z,3.75
2023-04-15T05:17:19.032Z,3.77
2023-04-15T05:19:45.400Z,3.80
2023-04-15T05:22:11.885Z,3.83
2023-04-15T05:24:38.280Z,3.85
2023-04-15T05:27:04.767Z,3.89
2023-04-15T05:29:31.231Z,3.93
2023-04-15T05:31:57.724Z,3.97
2023-04-15T05:34:24.084Z,4.02
2023-04-15T05:36:50.614Z,4.07
2023-04-15T05:39:17.037Z,4.16
2023-04-15T05:41:43.428Z,4.23
2023-04-15T05:44:09.830Z,4.30
2023-04-15T05:46:36.514Z,4.40
2023-04-15T05:49:03.147Z,4.49
2023-04-15T05:51:29.839Z,4.60
2023-04-15T05:53:56.283Z,4.69
2023-04-15T05:56:22.758Z,4.80
2023-04-15T05:58:49.152Z,4.91
2023-04-15T06:01:15.597Z,5.01
2023-04-15T06:03:43.090Z,5.12
2023-04-15T06:06:09.918Z,5.22
2023-04-15T06:08:36.655Z,5.32
2023-04-15T06:11:03.307Z,5.45
2023-04-15T06:13:29.792Z,5.57
2023-04-15T06:15:56.251Z,5.70
2023-04-15T06:18:22.670Z,5.84
2023-04-15T06:20:49.281Z,6.00
2023-04-15T06:23:15.686Z,6.16
2023-04-15T06:25:42.145Z,6.29
2023-04-15T06:28:08.721Z,6.43
2023-04-15T06:30:36.071Z,6.50
2023-04-15T06:33:05.454Z,6.64
2023-04-15T06:35:32.295Z,6.79
2023-04-15T06:37:58.751Z,6.88
2023-04-15T06:40:25.197Z,6.99
2023-04-15T06:42:51.705Z,7.14
2023-04-15T06:45:18.259Z,7.15
2023-04-15T06:47:44.692Z,7.32
2023-04-15T06:50:11.603Z,7.46
2023-04-15T06:52:38.053Z,7.61
2023-04-15T06:55:05.312Z,7.73
2023-04-15T06:57:33.771Z,7.84
2023-04-15T07:00:01.603Z,7.97
2023-04-15T07:02:28.166Z,8.05
2023-04-15T07:04:55.562Z,8.12
2023-04-15T07:07:22.246Z,8.21
2023-04-15T07:09:48.824Z,8.30
2023-04-15T07:12:15.294Z,8.42
2023-04-15T07:14:41.773Z,8.54
2023-04-15T07:17:09.574Z,8.67
2023-04-15T07:19:36.104Z,8.77
2023-04-15T07:22:02.610Z,8.85
2023-04-15T07:24:29.153Z,8.95
2023-04-15T07:26:59.446Z,9.01
2023-04-15T07:29:27.186Z,9.14
2023-04-15T07:31:53.602Z,9.16
2023-04-15T07:34:20.846Z,9.31
2023-04-15T07:36:50.569Z,9.45
2023-04-15T07:39:17.652Z,9.52
2023-04-15T07:41:44.178Z,9.65
2023-04-15T07:44:11.356Z,9.74
2023-04-15T07:46:38.537Z,9.83
2023-04-15T07:49:05.196Z,9.90
2023-04-15T07:51:32.221Z,9.97
2023-04-15T07:53:58.889Z,10.04
2023-04-15T07:56:26.418Z,10.12
2023-04-15T07:58:53.206Z,10.12
2023-04-15T08:01:19.699Z,10.27
2023-04-15T08:03:46.479Z,10.36
2023-04-15T08:06:13.031Z,10.50
2023-04-15T08:08:39.408Z,10.58
2023-04-15T08:11:06.000Z,10.67
2023-04-15T08:13:32.375Z,10.75
2023-04-15T08:16:25.518Z,10.83
2023-04-15T08:18:53.936Z,10.91
2023-04-15T08:21:20.755Z,11.02
2023-04-15T08:23:50.164Z,11.11
2023-04-15T08:26:17.623Z,11.15
2023-04-15T08:28:45.480Z,11.23
2023-04-15T08:31:13.929Z,11.27
2023-04-15T08:33:40.675Z,11.35
2023-04-15T08:36:07.665Z,11.45
2023-04-15T08:38:34.470Z,11.49
2023-04-15T08:41:04.474Z,11.60
2023-04-15T08:43:35.188Z,11.68
2023-04-15T08:46:02.246Z,11.76
2023-04-15T08:48:29.692Z,11.87
2023-04-15T08:50:56.638Z,11.92
2023-04-15T08:53:24.479Z,12.04
2023-04-15T08:55:52.886Z,12.15
2023-04-15T08:58:19.840Z,12.26
2023-04-15T09:00:46.574Z,12.36
2023-04-15T09:03:13.467Z,12.52
2023-04-15T09:05:40.013Z,12.66
2023-04-15T09:08:06.529Z,12.82
2023-04-15T09:10:33.659Z,12.95
2023-04-15T09:13:02.032Z,13.12
2023-04-15T09:15:29.802Z,13.20
2023-04-15T09:17:57.096Z,13.32
2023-04-15T09:20:24.031Z,13.44
2023-04-15T09:22:51.997Z,13.52
2023-04-15T09:25:24.385Z,13.59
2023-04-15T09:27:56.710Z,13.70
2023-04-15T09:30:23.660Z,13.81
2023-04-15T09:32:53.972Z,13.95
2023-04-15T09:35:22.250Z,14.06
2023-04-15T09:37:51.603Z,14.23
2023-04-15T09:40:39.145Z,14.39
2023-04-15T09:43:07.115Z,14.54
2023-04-15T09:45:35.733Z,14.65
2023-04-15T09:48:24.563Z,14.55
2023-04-15T09:50:53.571Z,14.58
2023-04-15T09:53:21.931Z,14.57
2023-04-15T09:55:52.147Z,14.60
2023-04-15T09:58:23.721Z,14.64
2023-04-15T10:00:52.890Z,14.61
2023-04-15T10:03:21.997Z,14.67
2023-04-15T10:05:51.914Z,14.70
2023-04-15T10:08:20.159Z,14.68
2023-04-15T10:10:47.983Z,14.67
2023-04-15T10:13:19.410Z,14.72
2023-04-15T10:15:53.370Z,14.83
2023-04-15T10:18:21.805Z,14.85
2023-04-15T10:20:48.751Z,14.96
2023-04-15T10:23:15.943Z,15.08
2023-04-15T10:25:42.990Z,15.25
2023-04-15T10:28:10.024Z,15.34
2023-04-15T10:30:37.089Z,15.56
2023-04-15T10:33:05.370Z,15.65
2023-04-15T10:35:34.192Z,15.67
2023-04-15T10:38:00.703Z,15.74
2023-04-15T10:40:31.447Z,15.93
2023-04-15T10:43:00.081Z,15.89
2023-04-15T10:45:33.788Z,16.17
2023-04-15T10:48:03.747Z,16.23
2023-04-15T10:50:33.811Z,16.25
2023-04-15T10:53:04.767Z,16.07
2023-04-15T10:55:34.840Z,16.22
2023-04-15T10:58:02.503Z,16.24
2023-04-15T11:00:31.669Z,16.28
2023-04-15T11:02:59.631Z,16.26
2023-04-15T11:05:41.659Z,16.48
2023-04-15T11:08:12.352Z,16.58
2023-04-15T11:10:38.702Z,16.63
2023-04-15T11:13:16.502Z,16.51
2023-04-15T11:15:45.023Z,16.39
2023-04-15T11:18:15.497Z,16.33
2023-04-15T11:20:47.169Z,16.12
2023-04-15T11:23:15.878Z,15.99
2023-04-15T11:25:43.875Z,15.91
2023-04-15T11:28:12.110Z,15.79
2023-04-15T11:30:39.890Z,15.73
2023-04-15T11:33:08.659Z,15.62
2023-04-15T11:35:35.984Z,15.63
2023-04-15T11:38:08.659Z,15.74
2023-04-15T11:40:35.790Z,15.77
2023-04-15T11:43:09.974Z,15.68
2023-04-15T11:45:37.893Z,15.74
2023-04-15T11:48:08.743Z,15.80
2023-04-15T11:50:36.648Z,15.65
2023-04-15T11:53:07.649Z,15.65
2023-04-15T11:55:47.103Z,15.55
2023-04-15T11:58:23.344Z,15.42
2023-04-15T12:00:58.824Z,15.37
2023-04-15T12:03:37.723Z,15.41
2023-04-15T12:06:07.551Z,15.29
2023-04-15T12:08:55.785Z,15.16
2023-04-15T12:11:32.152Z,15.00
2023-04-15T12:14:06.597Z,15.03
2023-04-15T12:16:48.914Z,15.03
2023-04-15T12:19:22.662Z,15.08
2023-04-15T12:21:49.331Z,14.96
2023-04-15T12:24:19.666Z,14.97
2023-04-15T12:26:50.522Z,14.99
2023-04-15T12:29:17.768Z,15.01
2023-04-15T12:31:48.911Z,15.08
2023-04-15T12:34:15.818Z,15.04
2023-04-15T12:36:42.418Z,15.05
2023-04-15T12:39:09.200Z,15.06
2023-04-15T12:41:35.657Z,15.00
2023-04-15T12:44:02.665Z,14.94
2023-04-15T12:46:29.402Z,14.85
2023-04-15T12:48:56.985Z,14.79
2023-04-15T12:51:23.512Z,14.71
2023-04-15T12:53:51.426Z,14.63
2023-04-15T12:56:18.132Z,14.57
2023-04-15T12:58:44.622Z,14.51
2023-04-15T13:01:11.328Z,14.47
2023-04-15T13:03:37.803Z,14.39
2023-04-15T13:06:05.117Z,14.34
2023-04-15T13:08:32.117Z,14.33
2023-04-15T13:10:58.741Z,14.18
2023-04-15T13:13:25.600Z,14.16
2023-04-15T13:15:52.038Z,14.19
2023-04-15T13:18:18.577Z,14.19
2023-04-15T13:20:45.011Z,14.23
2023-04-15T13:23:11.541Z,14.27
2023-04-15T13:25:38.052Z,14.34
2023-04-15T13:28:04.484Z,14.44
2023-04-15T13:30:31.322Z,14.52
2023-04-15T13:32:58.051Z,14.63
2023-04-15T13:35:24.877Z,14.64
2023-04-15T13:37:51.447Z,14.71
2023-04-15T13:40:17.921Z,14.68
2023-04-15T13:42:44.319Z,14.67
2023-04-15T13:45:11.131Z,14.68
2023-04-15T13:47:37.876Z,14.69
2023-04-15T13:50:05.470Z,14.63
2023-04-15T13:52:31.915Z,14.62
2023-04-15T13:55:18.308Z,14.58
2023-04-15T13:57:44.824Z,14.50
2023-04-15T14:00:13.613Z,14.48
2023-04-15T14:02:41.284Z,14.43
2023-04-15T14:05:08.483Z,14.39
2023-04-15T14:07:34.988Z,14.39
2023-04-15T14:10:01.506Z,14.34
2023-04-15T14:12:27.992Z,14.36
2023-04-15T14:14:54.500Z,14.23
2023-04-15T14:17:21.113Z,14.21
2023-04-15T14:19:47.625Z,14.15
2023-04-15T14:22:14.063Z,14.13
2023-04-15T14:24:40.494Z,14.17
2023-04-15T14:27:08.593Z,14.15
2023-04-15T14:29:35.049Z,14.19
2023-04-15T14:32:04.323Z,14.21
2023-04-15T14:34:37.647Z,14.26
2023-04-15T14:37:04.133Z,14.33
2023-04-15T14:39:30.838Z,14.30
2023-04-15T14:41:57.351Z,14.34
2023-04-15T14:44:24.138Z,14.36
2023-04-15T14:46:51.694Z,14.44
2023-04-15T14:49:18.262Z,14.44
2023-04-15T14:51:44.667Z,14.46
2023-04-15T14:54:11.122Z,14.39
2023-04-15T14:56:37.669Z,14.29
2023-04-15T14:59:04.344Z,14.21
2023-04-15T15:01:30.931Z,14.11
2023-04-15T15:03:57.524Z,13.96
2023-04-15T15:06:23.992Z,13.87
2023-04-15T15:08:50.399Z,13.78
2023-04-15T15:11:17.246Z,13.62
2023-04-15T15:13:43.760Z,13.55
2023-04-15T15:16:11.857Z,13.44
2023-04-15T15:18:39.540Z,13.32
2023-04-15T15:21:06.162Z,13.25
2023-04-15T15:23:32.595Z,13.19
2023-04-15T15:25:59.189Z,13.08
2023-04-15T15:28:25.618Z,13.06
2023-04-15T15:30:52.069Z,13.00
2023-04-15T15:33:18.498Z,12.98
2023-04-15T15:35:44.954Z,12.98
2023-04-15T15:38:12.189Z,12.97
2023-04-15T15:40:38.996Z,12.96
2023-04-15T15:43:05.411Z,12.90
2023-04-15T15:45:32.006Z,12.89
2023-04-15T15:47:59.279Z,12.88
2023-04-15T15:50:25.829Z,12.81
2023-04-15T15:52:52.291Z,12.72
2023-04-15T15:55:18.958Z,12.65
2023-04-15T15:57:45.528Z,12.63
2023-04-15T16:00:13.146Z,12.60
2023-04-15T16:03:05.331Z,12.55
2023-04-15T16:05:26.205Z,12.46
2023-04-15T16:07:52.673Z,12.43
2023-04-15T16:10:19.167Z,12.40
2023-04-15T16:12:45.830Z,12.39
2023-04-15T16:15:13.053Z,12.33
2023-04-15T16:17:39.665Z,12.31
2023-04-15T16:20:06.982Z,12.31
2023-04-15T16:22:34.779Z,12.26
2023-04-15T16:25:01.789Z,12.26
2023-04-15T16:27:28.454Z,12.23
2023-04-15T16:29:54.956Z,12.22
2023-04-15T16:32:21.535Z,12.20
2023-04-15T16:34:48.044Z,12.17
2023-04-15T16:37:14.451Z,12.17
2023-04-15T16:39:40.876Z,12.15
2023-04-15T16:42:07.430Z,12.13
2023-04-15T16:44:33.990Z,12.09
2023-04-15T16:47:02.259Z,12.01
2023-04-15T16:49:29.599Z,11.99
2023-04-15T16:51:56.060Z,11.98
2023-04-15T16:54:22.493Z,11.94
2023-04-15T16:56:48.882Z,11.92
2023-04-15T16:59:15.361Z,11.91
2023-04-15T17:01:41.896Z,11.89
2023-04-15T17:04:08.600Z,11.84
2023-04-15T17:06:35.212Z,11.80
2023-04-15T17:09:01.642Z,11.77
2023-04-15T17:11:28.308Z,11.79
2023-04-15T17:13:54.817Z,11.75
2023-04-15T17:16:21.413Z,11.75
2023-04-15T17:18:50.136Z,11.74
2023-04-15T17:21:17.796Z,11.73
2023-04-15T17:23:44.294Z,11.72
2023-04-15T17:26:11.120Z,11.69
2023-04-15T17:28:37.937Z,11.68
2023-04-15T17:31:05.203Z,11.64
2023-04-15T17:34:01.141Z,11.62
2023-04-15T17:36:18.558Z,11.58
2023-04-15T17:38:45.502Z,11.58
2023-04-15T17:41:12.092Z,11.56
2023-04-15T17:43:38.574Z,11.55
2023-04-15T17:46:07.075Z,11.53
2023-04-15T17:48:34.292Z,11.54
2023-04-15T17:51:00.849Z,11.50
2023-04-15T17:53:27.278Z,11.48
2023-04-15T17:55:53.818Z,11.48
2023-04-15T17:58:20.354Z,11.47
2023-04-15T18:00:47.168Z,11.44
2023-04-15T18:03:14.315Z,11.45
2023-04-15T18:05:42.655Z,11.41
2023-04-15T18:08:09.647Z,11.38
2023-04-15T18:10:36.717Z,11.32
2023-04-15T18:13:03.480Z,11.29
2023-04-15T18:15:33.322Z,11.23
2023-04-15T18:18:00.277Z,11.19
2023-04-15T18:20:27.867Z,11.15
2023-04-15T18:22:54.497Z,11.18
2023-04-15T18:25:21.023Z,11.17
2023-04-15T18:27:47.592Z,11.18
2023-04-15T18:30:14.086Z,11.16
2023-04-15T18:32:41.413Z,11.12
2023-04-15T18:35:08.503Z,11.12
2023-04-15T18:37:35.450Z,11.13
2023-04-15T18:40:02.037Z,11.14
2023-04-15T18:42:28.854Z,11.10
2023-04-15T18:44:55.300Z,11.12
2023-04-15T18:47:22.048Z,11.09
2023-04-15T18:49:48.541Z,11.09
2023-04-15T18:52:15.117Z,11.10
2023-04-15T18:54:41.524Z,11.07
2023-04-15T18:57:07.988Z,11.08
2023-04-15T18:59:34.637Z,11.04
2023-04-15T19:02:02.099Z,11.00
2023-04-15T19:04:29.371Z,10.93
2023-04-15T19:06:56.263Z,10.86
2023-04-15T19:09:22.724Z,10.83
2023-04-15T19:11:49.150Z,10.81
2023-04-15T19:14:15.706Z,10.79
2023-04-15T19:16:42.264Z,10.78
2023-04-15T19:19:08.881Z,10.79
2023-04-15T19:21:35.363Z,10.77
2023-04-15T19:24:02.002Z,10.72
2023-04-15T19:26:28.547Z,10.68
2023-04-15T19:28:56.469Z,10.64
2023-04-15T19:31:23.107Z,10.58
2023-04-15T19:33:49.590Z,10.52
2023-04-15T19:36:18.009Z,10.48
2023-04-15T19:38:44.445Z,10.42
2023-04-15T19:41:11.034Z,10.32
2023-04-15T19:43:37.525Z,10.27
2023-04-15T19:46:04.112Z,10.20
2023-04-15T19:48:31.009Z,10.17
2023-04-15T19:50:57.441Z,10.13
2023-04-15T19:53:25.601Z,10.12
2023-04-15T19:55:52.101Z,10.10
2023-04-15T19:58:18.586Z,10.04
2023-04-15T20:00:45.018Z,10.05
2023-04-15T20:03:11.595Z,10.02
2023-04-15T20:05:38.180Z,10.02
2023-04-15T20:08:04.735Z,10.01
2023-04-15T20:10:31.653Z,10.01
2023-04-15T20:12:58.142Z,10.01
2023-04-15T20:15:24.880Z,9.99
2023-04-15T20:17:51.463Z,9.99
2023-04-15T20:20:18.324Z,10.00
2023-04-15T20:22:44.872Z,10.00
2023-04-15T20:25:11.336Z,10.02
2023-04-15T20:27:37.747Z,10.00
2023-04-15T20:30:05.032Z,10.04
2023-04-15T20:32:35.253Z,10.03
2023-04-15T20:35:03.857Z,10.04
2023-04-15T20:37:32.908Z,10.07
2023-04-15T20:40:00.248Z,10.09
2023-04-15T20:42:26.751Z,10.08
2023-04-15T20:44:53.178Z,10.10
2023-04-15T20:47:19.664Z,10.08
2023-04-15T20:49:47.380Z,10.02
2023-04-15T20:52:13.827Z,9.99
2023-04-15T20:54:40.260Z,9.92
2023-04-15T20:57:06.709Z,9.92
2023-04-15T20:59:34.658Z,9.87
2023-04-15T21:02:01.387Z,9.83
2023-04-15T21:04:27.911Z,9.77
2023-04-15T21:06:54.373Z,9.75
2023-04-15T21:09:20.779Z,9.72
2023-04-15T21:14:19.730Z,9.66
2023-04-15T21:16:46.513Z,9.65
2023-04-15T21:19:12.980Z,9.64
2023-04-15T21:21:39.433Z,9.60
2023-04-15T21:24:07.672Z,9.60
2023-04-15T21:26:35.783Z,9.55
2023-04-15T21:29:02.821Z,9.50
2023-04-15T21:31:29.510Z,9.52
2023-04-15T21:33:56.024Z,9.52
2023-04-15T21:36:22.397Z,9.53
2023-04-15T21:38:48.830Z,9.51
2023-04-15T21:41:15.317Z,9.49
2023-04-15T21:43:41.771Z,9.47
2023-04-15T21:46:22.696Z,9.43
2023-04-15T21:48:52.433Z,9.43
2023-04-15T21:51:18.985Z,9.45
2023-04-15T21:53:45.619Z,9.44
2023-04-15T21:56:12.114Z,9.42
2023-04-15T21:58:38.544Z,9.45
2023-04-15T22:01:05.499Z,9.46
2023-04-15T22:03:36.148Z,9.44
2023-04-15T22:06:03.455Z,9.43
2023-04-15T22:08:33.628Z,9.43
2023-04-15T22:11:05.010Z,9.39
2023-04-15T22:13:31.405Z,9.39
2023-04-15T22:15:57.818Z,9.38
2023-04-15T22:18:24.293Z,9.36
2023-04-15T22:20:51.031Z,9.40
2023-04-15T22:23:20.372Z,9.37
2023-04-15T22:25:47.344Z,9.37
2023-04-15T22:28:13.828Z,9.34
2023-04-15T22:30:41.560Z,9.34
2023-04-15T22:33:09.084Z,9.34
2023-04-15T22:35:37.252Z,9.31
2023-04-15T22:38:04.546Z,9.28
2023-04-15T22:40:31.078Z,9.28
2023-04-15T22:42:57.477Z,9.32
2023-04-15T22:45:23.951Z,9.30
2023-04-15T22:47:50.399Z,9.32
2023-04-15T22:50:16.965Z,9.33
2023-04-15T22:52:46.120Z,9.31
2023-04-15T22:55:13.146Z,9.33
2023-04-15T22:57:39.647Z,9.35
2023-04-15T23:00:07.363Z,9.35
2023-04-15T23:02:34.696Z,9.37
2023-04-15T23:05:03.506Z,9.35
2023-04-15T23:07:38.171Z,9.33
2023-04-15T23:10:05.064Z,9.31
2023-04-15T23:12:31.453Z,9.24
2023-04-15T23:14:57.817Z,9.24
2023-04-15T23:17:24.280Z,9.26
2023-04-15T23:19:50.802Z,9.24
2023-04-15T23:22:18.555Z,9.26
2023-04-15T23:24:44.982Z,9.23
2023-04-15T23:27:11.420Z,9.17
2023-04-15T23:29:37.839Z,9.19
2023-04-15T23:32:04.455Z,9.14
2023-04-15T23:34:31.708Z,9.12
2023-04-15T23:36:58.173Z,9.10
2023-04-15T23:39:24.582Z,9.07
2023-04-15T23:41:51.179Z,9.06
2023-04-15T23:44:17.556Z,9.07
2023-04-15T23:46:43.973Z,9.03
2023-04-15T23:49:10.730Z,9.01
2023-04-15T23:51:37.222Z,8.97
2023-04-15T23:54:03.657Z,8.97
2023-04-15T23:56:30.042Z,8.95
2023-04-15T23:58:56.434Z,8.91
